Tiempo atmosférico en la estación meteorológica de Alpandeire, Málaga (680 m.)



Fecha
DESCASC
Temp. máxima en grados centígrados (hora)
DESCASC
Temp. mínima en grados centígrados (hora)
DESCASC
Temp. media en grados centígrados
DESCASC
Racha de viento máxima en m/sg (hora)
DESCASC
Velocidad máxima media en intervalos de 10 minutos(hora)
DESCASC
Precipitaciones diarias en mm
DESCASC
Precipitaciones de 00:00 a 06:00 en mm
DESCASC
Precipitaciones de 06:00 a 12:00 en mm
DESCASC
Precipitaciones de 12:00 a 18:00 en mm
DESCASC
Precipitaciones de 18:00 a 24:00 en mm
DESCASC
28-02-2021 11.4 (15:40) 8.7 (03:50) 10 9.17 (23:30) 3.89 (23:30) 2.2 0 0 0 2.2
27-02-2021 13.2 (16:10) 8.6 (06:30) 10.9 7.5 (08:20) 3.06 (05:50) 0 0 0 0 0
26-02-2021 13.2 (15:10) 9.4 (23:59) 11.3 11.39 (07:40) 4.17 (09:30) 0.4 0 0.4 0 0
25-02-2021 13.4 (14:30) 9.7 (00:00) 11.5 11.67 (00:20) 5.56 (22:00) 0 0 0 0 0
24-02-2021 13.4 (17:20) 9 (00:00) 11.2 14.72 (08:00) 5 (08:30) 0 0 0 0 0
23-02-2021 16.6 (15:50) 3.7 (00:00) 10.2 9.17 (11:00) 4.17 (13:30) 0 0 0 0 0
22-02-2021 13.9 (14:50) 5.2 (00:00) 9.5 10 (15:00) 5 (15:00) 0 0 0 0 0
21-02-2021 10.9 (09:20) 6.8 (00:00) 8.8 11.11 (11:50) 5 (12:30) 9.4 0 2 5 2.4
20-02-2021 19.1 (15:00) 10.2 (00:00) 14.7 8.33 (20:20) 4.17 (20:00) 0 0 0 0 0
19-02-2021 21.7 (15:30) 8.7 (00:00) 15.2 8.33 (14:20) 4.17 (14:10) 0 0 0 0 0
18-02-2021 22.3 (16:00) 7.6 (00:00) 14.9 4.72 (16:40) 2.78 (16:30) 0 0 0 0 0
17-02-2021 24.6 (15:40) 7.2 (00:00) 15.9 3.33 (14:50) 1.67 (16:20) 0 0 0 0 0
16-02-2021 22.2 (15:40) 7.6 (00:00) 14.9 8.06 (06:30) 5.28 (06:30) 0 0 0 0 0
15-02-2021 16.8 (14:40) 8.8 (00:00) 12.8 11.39 (12:00) 5.28 (11:30) 0 0 0 0 0
14-02-2021 19.8 (15:00) 7.9 (00:00) 13.8 10.28 (15:30) 5.28 (20:00) 0 0 0 0 0
13-02-2021 22.4 (14:50) 7.5 (00:00) 14.9 8.61 (05:00) 4.17 (05:00) 0 0 0 0 0
12-02-2021 18.7 (14:20) 10 (00:00) 14.4 12.22 (17:20) 5 (16:50) 0 0 0 0 0
11-02-2021 20.6 (15:40) 9.5 (00:00) 15.1 5 (15:40) 2.5 (16:10) 0 0 0 0 0
10-02-2021 12.9 (15:10) 9.8 (00:00) 11.3 15.83 (08:50) 7.78 (10:00) 12.8 4.2 4.8 3.8 0
09-02-2021 11.6 (15:40) 8.7 (00:00) 10.2 15.83 (19:20) 8.33 (12:20) 14.8 0 2.2 3.6 9
08-02-2021 -- (--) -- (--) -- 16.94 (06:00) 7.22 (05:50) -- 9 15.2 -- 0
07-02-2021 10.9 (12:50) 6.6 (00:00) 8.7 11.67 (19:20) 6.39 (19:20) 1.8 1 0.2 0 0.6
06-02-2021 11.7 (12:20) 7.4 (00:00) 9.5 10 (00:40) 3.89 (00:40) 12.6 7 0 3.8 1.8
05-02-2021 18 (13:20) 8.5 (00:00) 13.3 10.56 (16:00) 5.28 (04:10) 4 0 0 0 4
04-02-2021 19.1 (14:20) 7.4 (00:00) 13.3 5.28 (23:50) 3.06 (23:50) 0 0 0 0 0
03-02-2021 20.1 (15:00) 8.6 (00:00) 14.4 5.56 (14:40) 3.33 (14:40) 0 0 0 0 0
02-02-2021 24.7 (14:50) 8.8 (00:00) 16.8 5.83 (07:10) 2.78 (14:00) 0 0 0 0 0
01-02-2021 19.1 (16:00) 9.7 (00:00) 14.4 8.89 (05:00) 4.17 (13:50) 0.6 0.6 0 0 0

Gráficas

Temp. máximas Temp. mínimas Temp. medias Precipitaciones Rachas de viento máximas Velocidades máximas media en intervalos de 10 minutos

Datos horarios

Fecha y hora oficial Temperatura (ºC) Velocidad del viento (km/h) Dirección del viento Racha (km/h) Dirección de racha Precipitación (mm) Presión (hPa) Tendencia (hPa) Humedad (%)
2021-03-02 23:00:00 10.2 5 Nordeste 12 Nordeste 0 -- -- 90
2021-03-02 22:00:00 10.5 2 Este 4 Este 0 -- -- 87
2021-03-02 21:00:00 11.3 0 Calma 4 Oeste 0 -- -- 87
2021-03-02 20:00:00 11.9 2 Sudeste 6 Norte 0 -- -- 84
2021-03-02 19:00:00 12.7 4 Noroeste 12 Sudoeste 0 -- -- 83
2021-03-02 18:00:00 14.1 6 Oeste 13 Oeste 0 -- -- 77
2021-03-02 17:00:00 15.5 8 Sudoeste 20 Sudoeste 0 -- -- 74
2021-03-02 16:00:00 16.3 7 Oeste 14 Noroeste 0 -- -- 64
2021-03-02 15:00:00 14.8 4 Sudoeste 14 Este 0 -- -- 74
2021-03-02 14:00:00 15.2 10 Norte 22 Nordeste 0 -- -- 64
2021-03-02 13:00:00 14.5 13 Noroeste 22 Oeste 0 -- -- 67
2021-03-02 12:00:00 15.6 5 Sur 12 Sur 0 -- -- 67
2021-03-02 11:00:00 12.9 0 Calma 6 Sudoeste 0 -- -- 77
2021-03-02 10:00:00 10.7 2 Sudoeste 4 Sudoeste 0 -- -- 87
2021-03-02 09:00:00 9.1 0 Calma 6 Nordeste 0 -- -- 88
2021-03-02 08:00:00 8.9 0 Calma 10 Este 0 -- -- 86
2021-03-02 07:00:00 8.7 4 Este 13 Nordeste 0 -- -- 86
2021-03-02 06:00:00 8.1 2 Este 6 Nordeste 0 -- -- 88
2021-03-02 05:00:00 8.4 2 Este 8 Este 0 -- -- 86
2021-03-02 04:00:00 9.5 3 Este 9 Nordeste 0 -- -- 85
2021-03-02 03:00:00 10.1 2 Nordeste 12 Este 0 -- -- 83
2021-03-02 02:00:00 10.3 8 Este 16 Este 0 -- -- 83
2021-03-02 01:00:00 10.3 6 Este 15 Este 0.6 -- -- 84
2021-03-02 00:00:00 10.4 8 Este 15 Este 0 -- -- 82
2021-03-01 23:00:00 10.3 4 Este 15 Este 0 -- -- 80
2021-03-01 22:00:00 10.2 4 Este 9 Este 0 -- -- 77
2021-03-01 21:00:00 9.8 7 Nordeste 11 Nordeste 0 -- -- 79
2021-03-01 20:00:00 10.3 0 Calma 7 Este 0 -- -- 79
2021-03-01 19:00:00 11.6 4 Este 7 Nordeste 0 -- -- 75
2021-03-01 18:00:00 12.5 0 Calma 9 Oeste 0 -- -- 74
2021-03-01 17:00:00 12.5 3 Sudeste 19 Este 0 -- -- 72
2021-03-01 16:00:00 12.5 5 Sudeste 17 Sudeste 0 -- -- 72
2021-03-01 15:00:00 12.1 7 Sudeste 19 Sudeste 0 -- -- 76
2021-03-01 14:00:00 13 6 Sur 16 Este 0 -- -- 74
2021-03-01 13:00:00 11 2 Nordeste 14 Sudeste 0 -- -- 81
2021-03-01 12:00:00 10.4 6 Este 17 Este 0 -- -- 82
2021-03-01 11:00:00 10.2 4 Este 22 Este 0 -- -- 82
2021-03-01 10:00:00 10.3 5 Este 25 Este 0 -- -- 81
2021-03-01 09:00:00 9.6 8 Este 19 Este 0 -- -- 83
2021-03-01 08:00:00 9 2 Nordeste 16 Este 0 -- -- 84
2021-03-01 07:00:00 8.5 2 Este 20 Sudeste 0 -- -- 85
2021-03-01 06:00:00 9.1 5 Este 13 Sudeste 0 -- -- 82
2021-03-01 05:00:00 9.1 4 Este 17 Sudeste 0 -- -- 81
2021-03-01 04:00:00 8.9 7 Este 16 Este 0 -- -- 81
2021-03-01 03:00:00 8.9 12 Este 21 Este 0 -- -- 84
2021-03-01 02:00:00 8.8 3 Sur 13 Este 0 -- -- 88
2021-03-01 01:00:00 9 6 Sudeste 30 Este 0.8 -- -- 88
2021-03-01 00:00:00 9.4 9 Sudeste 33 Sudeste 1.6 -- -- 88
2021-02-28 23:00:00 9.7 10 Sudeste 30 Sudeste 0.6 -- -- 88
2021-02-28 22:00:00 9.9 7 Sudeste 21 Este 0 -- -- 84
2021-02-28 21:00:00 9.9 6 Sur 21 Sudeste 0 -- -- 82
2021-02-28 20:00:00 10.1 8 Este 24 Sudeste 0 -- -- 79
2021-02-28 19:00:00 10.3 9 Este 28 Este 0 -- -- 79
2021-02-28 18:00:00 10.5 8 Sudeste 27 Sudeste 0 -- -- 79
2021-02-28 17:00:00 10.7 9 Sudeste 19 Sudeste 0 -- -- 79
2021-02-28 16:00:00 11.4 9 Sudeste 31 Sudeste 0 -- -- 75
2021-02-28 15:00:00 10.2 13 Este 25 Sudeste 0 -- -- 79
2021-02-28 14:00:00 9.6 8 Sudeste 24 Sudeste 0 -- -- 82
2021-02-28 13:00:00 9.3 4 Sudeste 26 Sudeste 0 -- -- 83
2021-02-28 12:00:00 9.1 6 Sudeste 19 Sudeste 0 -- -- 86
2021-02-28 11:00:00 9.4 4 Sur 13 Sudeste 0 -- -- 87
2021-02-28 10:00:00 9.3 4 Sur 15 Sudeste 0 -- -- 87
2021-02-28 09:00:00 9.2 3 Sur 17 Sudeste 0 -- -- 85
2021-02-28 08:00:00 9.3 6 Sudeste 23 Este 0 -- -- 78
2021-02-28 07:00:00 9 3 Este 12 Sur 0 -- -- 79
2021-02-28 06:00:00 9.1 5 Este 19 Sur 0 -- -- 77
2021-02-28 05:00:00 8.9 9 Sudeste 28 Sudeste 0 -- -- 81
2021-02-28 04:00:00 8.8 13 Este 29 Sudeste 0 -- -- 81
2021-02-28 03:00:00 8.8 10 Sudeste 28 Este 0 -- -- 81
2021-02-28 02:00:00 8.9 9 Sudeste 26 Este 0 -- -- 80
2021-02-28 01:00:00 8.9 7 Sur 20 Sur 0 -- -- 82
2021-02-28 00:00:00 9.2 6 Sur 19 Sudeste 0 -- -- 81
2021-02-27 23:00:00 9.1 6 Este 16 Nordeste 0 -- -- 80
2021-02-27 22:00:00 9.2 0 Calma 15 Este 0 -- -- 80
2021-02-27 21:00:00 9.3 10 Este 16 Este 0 -- -- 79
2021-02-27 20:00:00 9.9 6 Este 23 Este 0 -- -- 77
2021-02-27 19:00:00 10.9 8 Este 19 Este 0 -- -- 71
2021-02-27 18:00:00 11.8 5 Este 20 Este 0 -- -- 68
2021-02-27 17:00:00 12.8 6 Este 22 Sudeste 0 -- -- 68
2021-02-27 16:00:00 13.1 8 Sudeste 21 Sudeste 0 -- -- 70
2021-02-27 15:00:00 12.1 8 Sudeste 21 Sudeste 0 -- -- 74
2021-02-27 14:00:00 12.9 8 Sur 22 Sur 0 -- -- 70
2021-02-27 13:00:00 11.8 10 Sur 22 Sudeste 0 -- -- 73
2021-02-27 12:00:00 11.8 7 Sudeste 19 Sudeste 0 -- -- 73
2021-02-27 11:00:00 10.3 4 Este 26 Este 0 -- -- 77
2021-02-27 10:00:00 9.5 3 Este 18 Este 0 -- -- 78
2021-02-27 09:00:00 9 8 Este 27 Este 0 -- -- 80
2021-02-27 08:00:00 8.7 8 Este 18 Este 0 -- -- 83
2021-02-27 07:00:00 8.6 7 Este 20 Este 0 -- -- 84
2021-02-27 06:00:00 8.8 8 Este 24 Este 0 -- -- 84
2021-02-27 05:00:00 9.1 9 Este 18 Este 0 -- -- 82
2021-02-27 04:00:00 9.2 5 Este 15 Este 0 -- -- 82
2021-02-27 03:00:00 9.5 4 Este 18 Este 0 -- -- 79
2021-02-27 02:00:00 9.3 5 Este 14 Este 0 -- -- 80
2021-02-27 01:00:00 9.4 5 Este 17 Este 0 -- -- 81
2021-02-27 00:00:00 9.4 3 Sudeste 18 Este 0 -- -- 79
2021-02-26 23:00:00 9.6 6 Este 14 Este 0 -- -- 81
2021-02-26 22:00:00 9.7 4 Este 15 Este 0 -- -- 79
2021-02-26 21:00:00 10.1 2 Sudoeste 20 Sur 0 -- -- 76
2021-02-26 20:00:00 10.3 3 Este 15 Este 0 -- -- 76
2021-02-26 19:00:00 11.1 3 Sudoeste 25 Este 0 -- -- 76
2021-02-26 18:00:00 12.2 9 Sudeste 24 Sur 0 -- -- 72
2021-02-26 17:00:00 12.3 11 Sudeste 22 Sudeste 0 -- -- 73
2021-02-26 16:00:00 13.1 5 Este 22 Este 0 -- -- 70
2021-02-26 15:00:00 12.6 9 Este 29 Este 0 -- -- 72
2021-02-26 14:00:00 12.4 10 Este 28 Este 0 -- -- 75
2021-02-26 13:00:00 11.7 8 Este 23 Este 0 -- -- 78
2021-02-26 12:00:00 11.5 9 Este 26 Sudeste 0 -- -- 77
2021-02-26 11:00:00 10.3 8 Este 29 Sudeste 0 -- -- 81
2021-02-26 10:00:00 10.1 12 Este 33 Sudeste 0 -- -- 81
2021-02-26 09:00:00 10 12 Este 40 Sudeste 0.4 -- -- 87
2021-02-26 08:00:00 10.3 13 Este 41 Sudeste 0 -- -- 82
2021-02-26 07:00:00 10.3 13 Este 32 Sudeste 0 -- -- 84
2021-02-26 06:00:00 10.4 5 Este 22 Este 0 -- -- 83
2021-02-26 05:00:00 10.2 8 Sudeste 21 Este 0 -- -- 82
2021-02-26 04:00:00 10.3 3 Norte 16 Sudeste 0 -- -- 80
2021-02-26 03:00:00 10.4 4 Sudeste 22 Este 0 -- -- 80
2021-02-26 02:00:00 10.5 4 Este 35 Este 0 -- -- 79
2021-02-26 01:00:00 10.3 10 Este 29 Este 0 -- -- 80
2021-02-26 00:00:00 10.4 8 Este 20 Este 0 -- -- 78
2021-02-25 23:00:00 10.5 9 Sudeste 30 Este 0 -- -- 75
2021-02-25 22:00:00 10.5 20 Este 33 Este 0 -- -- 73
2021-02-25 21:00:00 10.1 8 Este 18 Este 0 -- -- 81
2021-02-25 20:00:00 10.6 3 Este 10 Sudeste 0 -- -- 82
2021-02-25 19:00:00 11.8 3 Sur 12 Sur 0 -- -- 79
2021-02-25 18:00:00 12.5 2 Sur 16 Este 0 -- -- 79
2021-02-25 17:00:00 12.7 5 Sudeste 14 Sudeste 0 -- -- 78
2021-02-25 16:00:00 12.8 5 Sudeste 16 Sudoeste 0 -- -- 77
2021-02-25 15:00:00 13.2 7 Sudeste 20 Sudeste 0 -- -- 77
2021-02-25 14:00:00 13.2 9 Sudeste 28 Este 0 -- -- 75
2021-02-25 13:00:00 13.2 8 Sur 32 Sudoeste 0 -- -- 75
2021-02-25 12:00:00 12 5 Sur 21 Sudeste 0 -- -- 81
2021-02-25 11:00:00 11.3 5 Sur 18 Sudeste 0 -- -- 83
2021-02-25 10:00:00 10.7 3 Noroeste 19 Sur 0 -- -- 84
2021-02-25 09:00:00 10.1 7 Sudeste 18 Sudeste 0 -- -- 85
2021-02-25 08:00:00 9.9 8 Sudeste 19 Sudeste 0 -- -- 83
2021-02-25 07:00:00 10 8 Sur 22 Este 0 -- -- 82
2021-02-25 06:00:00 10.2 9 Este 27 Sudeste 0 -- -- 82
2021-02-25 05:00:00 10 12 Este 34 Este 0 -- -- 82
2021-02-25 04:00:00 9.8 8 Este 24 Este 0 -- -- 81
2021-02-25 03:00:00 9.7 12 Este 29 Este 0 -- -- 79
2021-02-25 02:00:00 9.8 14 Este 32 Sudeste 0 -- -- 78
2021-02-25 01:00:00 9.8 6 Este 42 Este 0 -- -- 77
2021-02-25 00:00:00 9.8 14 Este 38 Sudeste 0 -- -- 78
2021-02-24 23:00:00 9.9 14 Sudeste 42 Sur 0 -- -- 78
2021-02-24 22:00:00 10.2 18 Este 38 Este 0 -- -- 74
2021-02-24 21:00:00 10.2 10 Sudeste 20 Sudeste 0 -- -- 69
2021-02-24 20:00:00 10.9 8 Este 22 Este 0 -- -- 68
2021-02-24 19:00:00 11.7 6 Este 31 Este 0 -- -- 68
2021-02-24 18:00:00 12.9 8 Sur 32 Sudeste 0 -- -- 66
2021-02-24 17:00:00 13.3 10 Sudeste 31 Sudeste 0 -- -- 71
2021-02-24 16:00:00 12.4 9 Sudeste 32 Sudeste 0 -- -- 74
2021-02-24 15:00:00 11.8 10 Sudeste 36 Sudeste 0 -- -- 77
2021-02-24 14:00:00 11.3 17 Sur 32 Sudeste 0 -- -- 80
2021-02-24 13:00:00 11.3 12 Sudeste 35 Este 0 -- -- 79
2021-02-24 12:00:00 11.1 13 Sudeste 35 Este 0 -- -- 79
2021-02-24 11:00:00 11.1 12 Sudeste 31 Este 0 -- -- 77
2021-02-24 10:00:00 10.9 13 Sudeste 41 Sudeste 0 -- -- 75
2021-02-24 09:00:00 10.5 9 Sudeste 41 Este 0 -- -- 75
2021-02-24 08:00:00 10.3 14 Sudeste 53 Este 0 -- -- 76
2021-02-24 07:00:00 10.3 14 Sudeste 36 Este 0 -- -- 77
2021-02-24 06:00:00 10.5 15 Sudeste 37 Sudeste 0 -- -- 76
2021-02-24 05:00:00 10.4 10 Sudeste 38 Sudeste 0 -- -- 77
2021-02-24 04:00:00 10.3 13 Sudeste 41 Sudeste 0 -- -- 78
2021-02-24 03:00:00 9.8 13 Sudeste 43 Este 0 -- -- 73
2021-02-24 02:00:00 9.7 12 Sudeste 35 Sudeste 0 -- -- 73
2021-02-24 01:00:00 9.2 14 Sudeste 36 Este 0 -- -- 70
2021-02-24 00:00:00 9.1 13 Sudeste 28 Sur 0 -- -- 67
2021-02-23 23:00:00 8.7 8 Sudeste 18 Sudeste 0 -- -- 63
2021-02-23 22:00:00 8.5 2 Este 6 Sudeste 0 -- -- 70
2021-02-23 21:00:00 9.4 4 Sur 15 Sudeste 0 -- -- 68
2021-02-23 20:00:00 9.6 3 Sudeste 13 Sudeste 0 -- -- 66
2021-02-23 19:00:00 11 5 Sudeste 21 Sur 0 -- -- 61
2021-02-23 18:00:00 13.1 13 Sur 28 Sur 0 -- -- 60
2021-02-23 17:00:00 14.9 9 Sur 29 Sur 0 -- -- 55
2021-02-23 16:00:00 16.2 15 Sur 30 Sudoeste 0 -- -- 49
2021-02-23 15:00:00 15.3 12 Sur 28 Sudoeste 0 -- -- 51
2021-02-23 14:00:00 15.3 15 Sur 32 Sur 0 -- -- 48
2021-02-23 13:00:00 15.1 15 Sur 31 Sur 0 -- -- 47
2021-02-23 12:00:00 14.4 9 Sudeste 29 Sudeste 0 -- -- 49
2021-02-23 11:00:00 12.7 13 Sur 33 Sudoeste 0 -- -- 47
2021-02-23 10:00:00 10 5 Este 24 Este 0 -- -- 55
2021-02-23 09:00:00 6.7 9 Este 17 Este 0 -- -- 57
2021-02-23 08:00:00 4 2 Sudeste 6 Este 0 -- -- 67
2021-02-23 07:00:00 4 0 Calma 6 Noroeste 0 -- -- 75
2021-02-23 06:00:00 4.9 3 Nordeste 7 Noroeste 0 -- -- 78
2021-02-23 05:00:00 5.7 0 Calma 11 Nordeste 0 -- -- 80
2021-02-23 04:00:00 5.6 3 Este 10 Este 0 -- -- 81
2021-02-23 03:00:00 5.7 4 Nordeste 7 Sur 0 -- -- 81
2021-02-23 02:00:00 5.7 2 Este 9 Este 0 -- -- 81
2021-02-23 01:00:00 6.1 2 Noroeste 8 Nordeste 0 -- -- 80
2021-02-23 00:00:00 6.4 3 Nordeste 10 Este 0 -- -- 80
2021-02-22 23:00:00 6.2 3 Sudeste 10 Sur 0 -- -- 79
2021-02-22 22:00:00 7.1 2 Este 8 Nordeste 0 -- -- 74
2021-02-22 21:00:00 8.2 3 Nordeste 9 Nordeste 0 -- -- 72
2021-02-22 20:00:00 8.9 2 Este 13 Oeste 0 -- -- 66
2021-02-22 19:00:00 10.5 8 Oeste 21 Oeste 0 -- -- 59
2021-02-22 18:00:00 11.4 12 Noroeste 22 Nordeste 0 -- -- 56
2021-02-22 17:00:00 13.6 14 Noroeste 26 Oeste 0 -- -- 50
2021-02-22 16:00:00 12.5 7 Noroeste 29 Oeste 0 -- -- 52
2021-02-22 15:00:00 13.3 18 Oeste 36 Oeste 0 -- -- 48
2021-02-22 14:00:00 13.1 5 Noroeste 22 Nordeste 0 -- -- 53
2021-02-22 13:00:00 12.3 4 Noroeste 15 Oeste 0 -- -- 56
2021-02-22 12:00:00 11.4 6 Noroeste 26 Oeste 0 -- -- 56
2021-02-22 11:00:00 9.7 9 Noroeste 27 Noroeste 0 -- -- 60
2021-02-22 10:00:00 7.6 5 Oeste 20 Noroeste 0 -- -- 66
2021-02-22 09:00:00 5.6 2 Noroeste 17 Norte 0 -- -- 68
2021-02-22 08:00:00 5.7 7 Norte 24 Nordeste 0 -- -- 67
2021-02-22 07:00:00 5.5 8 Norte 19 Noroeste 0 -- -- 70
2021-02-22 06:00:00 5.3 5 Norte 12 Norte 0 -- -- 76
2021-02-22 05:00:00 5.7 3 Norte 14 Nordeste 0 -- -- 76
2021-02-22 04:00:00 6.2 3 Este 21 Noroeste 0 -- -- 75
2021-02-22 03:00:00 6.8 5 Noroeste 20 Norte 0 -- -- 71
2021-02-22 02:00:00 7.2 8 Noroeste 26 Noroeste 0 -- -- 75
2021-02-22 01:00:00 7.2 9 Noroeste 24 Norte 0 -- -- 78
2021-02-22 00:00:00 7.1 10 Norte 33 Noroeste 0 -- -- 80
2021-02-21 23:00:00 6.8 14 Noroeste 33 Noroeste 0.2 -- -- 76
2021-02-21 22:00:00 7.2 10 Norte 26 Norte 1.4 -- -- 82
2021-02-21 21:00:00 7.4 7 Norte 18 Norte 0 -- -- 79
2021-02-21 20:00:00 7.1 10 Noroeste 28 Noroeste 0.2 -- -- 76
2021-02-21 19:00:00 7.4 9 Noroeste 32 Noroeste 0.6 -- -- 84
2021-02-21 18:00:00 7.7 10 Oeste 31 Oeste 0 -- -- 85
2021-02-21 17:00:00 8.2 17 Oeste 32 Oeste 0.2 -- -- 86
2021-02-21 16:00:00 8.9 13 Oeste 31 Oeste 0 -- -- 85
2021-02-21 15:00:00 8.9 8 Oeste 20 Oeste 0 -- -- 88
2021-02-21 14:00:00 8.7 3 Oeste 23 Oeste 1.4 -- -- 90
2021-02-21 13:00:00 8.6 5 Sudoeste 37 Sudoeste 3.4 -- -- 91
2021-02-21 12:00:00 9.7 14 Sudoeste 40 Sudoeste 1.2 -- -- 89
2021-02-21 11:00:00 10.4 5 Oeste 17 Noroeste 0.8 -- -- 86
2021-02-21 10:00:00 10.8 6 Oeste 21 Sudoeste 0 -- -- 79
2021-02-21 09:00:00 10.7 4 Sudeste 11 Sudeste 0 -- -- 75
2021-02-21 08:00:00 10.1 0 Calma 10 Sur 0 -- -- 75
2021-02-21 07:00:00 10.1 3 Norte 10 Este 0 -- -- 77
2021-02-21 06:00:00 10.1 3 Este 10 Oeste 0 -- -- 78
2021-02-21 05:00:00 10.3 3 Norte 15 Este 0 -- -- 76
2021-02-21 04:00:00 10.4 7 Este 24 Este 0 -- -- 73
2021-02-21 03:00:00 10.2 8 Este 21 Este 0 -- -- 76
2021-02-21 02:00:00 10 4 Este 17 Este 0 -- -- 74
2021-02-21 01:00:00 10.1 4 Sudeste 24 Este 0 -- -- 76
2021-02-21 00:00:00 10.4 11 Este 22 Este 0 -- -- 76
2021-02-20 23:00:00 10.9 3 Sudeste 14 Sur 0 -- -- 66
2021-02-20 22:00:00 11.3 7 Sudeste 30 Este 0 -- -- 66
2021-02-20 21:00:00 11.2 6 Este 30 Este 0 -- -- 70
2021-02-20 20:00:00 11.6 15 Nordeste 27 Nordeste 0 -- -- 72
2021-02-20 19:00:00 13.2 4 Este 15 Este 0 -- -- 66
2021-02-20 18:00:00 14.8 5 Sur 18 Nordeste 0 -- -- 62
2021-02-20 17:00:00 16.7 5 Sur 18 Este 0 -- -- 58
2021-02-20 16:00:00 17.9 9 Sudeste 21 Este 0 -- -- 52
2021-02-20 15:00:00 19.1 6 Sudeste 22 Sur 0 -- -- 51
2021-02-20 14:00:00 17.3 9 Sudeste 27 Este 0 -- -- 57
2021-02-20 13:00:00 18.1 9 Sur 22 Sur 0 -- -- 51
2021-02-20 12:00:00 17.4 8 Sudeste 21 Sudeste 0 -- -- 46
2021-02-20 11:00:00 15.3 11 Sudeste 26 Este 0 -- -- 50
2021-02-20 10:00:00 12.4 7 Este 21 Este 0 -- -- 55
2021-02-20 09:00:00 11.4 6 Este 21 Este 0 -- -- 55
2021-02-20 08:00:00 10.3 4 Nordeste 23 Este 0 -- -- 56
2021-02-20 07:00:00 11.3 5 Sudeste 21 Nordeste 0 -- -- 46
2021-02-20 06:00:00 11.5 5 Este 18 Nordeste 0 -- -- 43
2021-02-20 05:00:00 11.5 8 Este 19 Este 0 -- -- 41
2021-02-20 04:00:00 11.4 6 Este 22 Sudeste 0 -- -- 42
2021-02-20 03:00:00 11.8 6 Este 21 Este 0 -- -- 48
2021-02-20 02:00:00 12.3 7 Este 28 Sudeste 0 -- -- 47
2021-02-20 01:00:00 12.4 10 Este 25 Sudeste 0 -- -- 46
2021-02-20 00:00:00 12.6 8 Este 23 Este 0 -- -- 46
2021-02-19 23:00:00 12.8 4 Este 14 Este 0 -- -- 45
2021-02-19 22:00:00 13.4 6 Sudeste 17 Este 0 -- -- 47
2021-02-19 21:00:00 13.5 6 Este 20 Sudeste 0 -- -- 45
2021-02-19 20:00:00 13.9 7 Este 16 Este 0 -- -- 62
2021-02-19 19:00:00 16.3 2 Sudeste 12 Sur 0 -- -- 45
2021-02-19 18:00:00 18.4 5 Sur 22 Sudeste 0 -- -- 36
2021-02-19 17:00:00 20.4 8 Sudeste 20 Este 0 -- -- 33
2021-02-19 16:00:00 21.2 11 Sur 26 Sur 0 -- -- 29
2021-02-19 15:00:00 21.4 10 Sur 30 Sur 0 -- -- 28
2021-02-19 14:00:00 21.2 10 Sur 26 Sur 0 -- -- 30
2021-02-19 13:00:00 21 8 Sur 17 Sudoeste 0 -- -- 33
2021-02-19 12:00:00 19.3 8 Sur 14 Sur 0 -- -- 38
2021-02-19 11:00:00 17.8 5 Sudoeste 12 Nordeste 0 -- -- 47
2021-02-19 10:00:00 13.9 6 Este 17 Este 0 -- -- 40
2021-02-19 09:00:00 9.8 4 Este 9 Nordeste 0 -- -- 53
2021-02-19 08:00:00 8.7 0 Calma 4 Este 0 -- -- 60
2021-02-19 07:00:00 9.2 0 Calma 7 Nordeste 0 -- -- 67
2021-02-19 06:00:00 10 5 Nordeste 8 Nordeste 0 -- -- 66
2021-02-19 05:00:00 10.7 6 Nordeste 10 Nordeste 0 -- -- 63
2021-02-19 04:00:00 10.6 6 Nordeste 9 Nordeste 0 -- -- 59
2021-02-19 03:00:00 9.3 5 Nordeste 8 Nordeste 0 -- -- 66
2021-02-19 02:00:00 9.6 0 Calma 4 Nordeste 0 -- -- 64
2021-02-19 01:00:00 10.3 2 Nordeste 7 Nordeste 0 -- -- 64
2021-02-19 00:00:00 10.7 3 Nordeste 6 Este 0 -- -- 66
2021-02-18 23:00:00 10.9 3 Este 8 Nordeste 0 -- -- 74
2021-02-18 22:00:00 12.1 3 Nordeste 5 Nordeste 0 -- -- 76
2021-02-18 21:00:00 13.1 0 Calma 5 Norte 0 -- -- 73
2021-02-18 20:00:00 15.1 0 Calma 8 Oeste 0 -- -- 68
2021-02-18 19:00:00 17.4 3 Oeste 10 Sudoeste 0 -- -- 59
2021-02-18 18:00:00 19.7 5 Sudoeste 14 Sudoeste 0 -- -- 54
2021-02-18 17:00:00 21.6 8 Sudoeste 17 Sur 0 -- -- 51
2021-02-18 16:00:00 22.3 8 Sudoeste 17 Sudoeste 0 -- -- 49
2021-02-18 15:00:00 21.7 9 Sudoeste 15 Sudoeste 0 -- -- 46
2021-02-18 14:00:00 20.8 9 Sudoeste 14 Sur 0 -- -- 45
2021-02-18 13:00:00 19.6 6 Sudoeste 15 Sudoeste 0 -- -- 45
2021-02-18 12:00:00 17.8 4 Sudoeste 12 Sur 0 -- -- 42
2021-02-18 11:00:00 16 4 Sudoeste 8 Oeste 0 -- -- 46
2021-02-18 10:00:00 11.3 0 Calma 5 Este 0 -- -- 67
2021-02-18 09:00:00 8.5 0 Calma 9 Nordeste 0 -- -- 56
2021-02-18 08:00:00 7.7 2 Nordeste 8 Nordeste 0 -- -- 59
2021-02-18 07:00:00 8.5 5 Nordeste 9 Nordeste 0 -- -- 52
2021-02-18 06:00:00 8.4 6 Nordeste 9 Nordeste 0 -- -- 57
2021-02-18 05:00:00 8.2 3 Este 6 Este 0 -- -- 62
2021-02-18 04:00:00 9.2 2 Este 14 Nordeste 0 -- -- 60
2021-02-18 03:00:00 8.8 3 Este 4 Este 0 -- -- 64
2021-02-18 02:00:00 9 2 Este 4 Este 0 -- -- 68
2021-02-18 01:00:00 9.3 0 Calma 2 Este 0 -- -- 72
2021-02-18 00:00:00 10.4 0 Calma 5 Este 0 -- -- 66
2021-02-17 23:00:00 11.4 0 Calma 4 Este 0 -- -- 72
2021-02-17 22:00:00 12.7 3 Nordeste 5 Nordeste 0 -- -- 73
2021-02-17 21:00:00 12.8 0 Calma 3 Nordeste 0 -- -- 76
2021-02-17 20:00:00 14.1 0 Calma 2 Sur 0 -- -- 73
2021-02-17 19:00:00 17 0 Calma 7 Oeste 0 -- -- 66
2021-02-17 18:00:00 19.9 4 Oeste 9 Oeste 0 -- -- 59
2021-02-17 17:00:00 22.5 6 Oeste 10 Sudoeste 0 -- -- 50
2021-02-17 16:00:00 23.8 6 Sur 11 Oeste 0 -- -- 47
2021-02-17 15:00:00 24.2 4 Sudoeste 12 Sur 0 -- -- 46
2021-02-17 14:00:00 23.3 6 Sudoeste 10 Sudoeste 0 -- -- 46
2021-02-17 13:00:00 21.7 5 Sudoeste 9 Sudoeste 0 -- -- 46
2021-02-17 12:00:00 19.1 3 Sudoeste 6 Sudoeste 0 -- -- 46
2021-02-17 11:00:00 16.4 3 Sudoeste 5 Sudoeste 0 -- -- 49
2021-02-17 10:00:00 11.8 0 Calma 4 Este 0 -- -- 68
2021-02-17 09:00:00 8.6 2 Este 4 Este 0 -- -- 58
2021-02-17 08:00:00 7.4 0 Calma 4 Este 0 -- -- 64
2021-02-17 07:00:00 7.4 0 Calma 2 Sudeste 0 -- -- 67
2021-02-17 06:00:00 7.6 0 Calma 3 Este 0 -- -- 66
2021-02-17 05:00:00 7.8 0 Calma 3 Este 0 -- -- 68
2021-02-17 04:00:00 8.1 0 Calma 3 Este 0 -- -- 68
2021-02-17 03:00:00 8 0 Calma 4 Sudeste 0 -- -- 72
2021-02-17 02:00:00 8.1 0 Calma 3 Este 0 -- -- 77
2021-02-17 01:00:00 8.8 2 Este 4 Este 0 -- -- 76
2021-02-17 00:00:00 9.7 0 Calma 4 Este 0 -- -- 81
2021-02-16 23:00:00 9.4 0 Calma 3 Sudeste 0 -- -- 83
2021-02-16 22:00:00 9.8 0 Calma 3 Este 0 -- -- 82
2021-02-16 21:00:00 11 0 Calma 2 Sudeste 0 -- -- 79
2021-02-16 20:00:00 12.4 0 Calma 2 Sur 0 -- -- 75
2021-02-16 19:00:00 14.9 0 Calma 8 Sudoeste 0 -- -- 68
2021-02-16 18:00:00 17.7 4 Oeste 12 Sudoeste 0 -- -- 61
2021-02-16 17:00:00 21 6 Sudoeste 11 Sur 0 -- -- 52
2021-02-16 16:00:00 21.8 7 Sudoeste 13 Sudoeste 0 -- -- 49
2021-02-16 15:00:00 21.4 6 Oeste 12 Oeste 0 -- -- 49
2021-02-16 14:00:00 19.7 6 Noroeste 12 Oeste 0 -- -- 51
2021-02-16 13:00:00 17.5 5 Sudoeste 14 Sur 0 -- -- 57
2021-02-16 12:00:00 14.4 7 Sur 15 Sudoeste 0 -- -- 64
2021-02-16 11:00:00 12.2 6 Este 17 Nordeste 0 -- -- 73
2021-02-16 10:00:00 9.3 7 Este 23 Sudeste 0 -- -- 80
2021-02-16 09:00:00 7.7 5 Este 22 Este 0 -- -- 82
2021-02-16 08:00:00 7.8 3 Nordeste 26 Este 0 -- -- 78
2021-02-16 07:00:00 8.3 15 Este 29 Este 0 -- -- 71
2021-02-16 06:00:00 8.1 8 Este 23 Este 0 -- -- 72
2021-02-16 05:00:00 8 4 Este 19 Nordeste 0 -- -- 69
2021-02-16 04:00:00 8.4 10 Este 22 Nordeste 0 -- -- 66
2021-02-16 03:00:00 8.7 7 Este 20 Nordeste 0 -- -- 63
2021-02-16 02:00:00 8.9 9 Este 19 Nordeste 0 -- -- 63
2021-02-16 01:00:00 9.2 9 Este 25 Este 0 -- -- 63
2021-02-16 00:00:00 9.3 8 Este 24 Este 0 -- -- 63
2021-02-15 23:00:00 9.6 13 Este 28 Este 0 -- -- 61
2021-02-15 22:00:00 9.6 9 Este 28 Este 0 -- -- 60
2021-02-15 21:00:00 9.7 9 Este 31 Este 0 -- -- 62
2021-02-15 20:00:00 10.1 9 Este 28 Sudeste 0 -- -- 65
2021-02-15 19:00:00 11.2 13 Este 27 Este 0 -- -- 65
2021-02-15 18:00:00 13.5 8 Sudeste 37 Sur 0 -- -- 58
2021-02-15 17:00:00 15.3 9 Sudeste 32 Sudeste 0 -- -- 57
2021-02-15 16:00:00 16.3 12 Sudeste 33 Sudoeste 0 -- -- 54
2021-02-15 15:00:00 16.7 14 Sudeste 36 Sur 0 -- -- 54
2021-02-15 14:00:00 16.1 15 Sudeste 32 Sur 0 -- -- 53
2021-02-15 13:00:00 15.3 8 Sudeste 34 Sur 0 -- -- 57
2021-02-15 12:00:00 13.8 15 Sur 41 Sur 0 -- -- 59
2021-02-15 11:00:00 13.2 8 Sudeste 32 Sur 0 -- -- 59
2021-02-15 10:00:00 11 10 Sudeste 28 Sudeste 0 -- -- 66
2021-02-15 09:00:00 9.1 11 Este 26 Este 0 -- -- 72
2021-02-15 08:00:00 9 10 Este 27 Este 0 -- -- 72
2021-02-15 07:00:00 8.9 10 Este 28 Este 0 -- -- 73
2021-02-15 06:00:00 8.9 10 Este 26 Este 0 -- -- 72
2021-02-15 05:00:00 9 11 Este 31 Este 0 -- -- 70
2021-02-15 04:00:00 9.2 11 Este 31 Este 0 -- -- 65
2021-02-15 03:00:00 9.7 11 Este 31 Este 0 -- -- 60
2021-02-15 02:00:00 10.1 12 Este 30 Este 0 -- -- 56
2021-02-15 01:00:00 10.4 12 Este 31 Sudeste 0 -- -- 57
2021-02-15 00:00:00 10.8 12 Este 33 Este 0 -- -- 57
2021-02-14 23:00:00 11 10 Este 27 Este 0 -- -- 56
2021-02-14 22:00:00 11.3 9 Este 22 Este 0 -- -- 54
2021-02-14 21:00:00 11.8 9 Este 28 Este 0 -- -- 53
2021-02-14 20:00:00 12.5 19 Este 32 Este 0 -- -- 50
2021-02-14 19:00:00 13.2 8 Este 22 Este 0 -- -- 50
2021-02-14 18:00:00 15.3 10 Sudeste 30 Este 0 -- -- 45
2021-02-14 17:00:00 17.8 10 Sudeste 32 Sur 0 -- -- 43
2021-02-14 16:00:00 18.8 13 Sur 37 Sur 0 -- -- 40
2021-02-14 15:00:00 19.8 12 Sur 28 Sur 0 -- -- 39
2021-02-14 14:00:00 18.9 14 Sudeste 36 Sudeste 0 -- -- 38
2021-02-14 13:00:00 18.5 14 Sudeste 33 Sudeste 0 -- -- 36
2021-02-14 12:00:00 17.7 12 Sur 24 Sur 0 -- -- 41
2021-02-14 11:00:00 16 8 Sur 17 Sur 0 -- -- 43
2021-02-14 10:00:00 13 5 Este 15 Este 0 -- -- 47
2021-02-14 09:00:00 8.5 4 Nordeste 12 Nordeste 0 -- -- 51
2021-02-14 08:00:00 7.9 0 Calma 6 Este 0 -- -- 51
2021-02-14 07:00:00 9.3 3 Este 8 Norte 0 -- -- 49
2021-02-14 06:00:00 9.5 0 Calma 8 Nordeste 0 -- -- 51
2021-02-14 05:00:00 10.3 0 Calma 9 Nordeste 0 -- -- 43
2021-02-14 04:00:00 10.8 4 Este 11 Nordeste 0 -- -- 42
2021-02-14 03:00:00 11 4 Nordeste 14 Nordeste 0 -- -- 32
2021-02-14 02:00:00 10.1 3 Nordeste 10 Este 0 -- -- 34
2021-02-14 01:00:00 9.9 2 Nordeste 9 Nordeste 0 -- -- 34
2021-02-14 00:00:00 10.5 2 Este 22 Este 0 -- -- 32
2021-02-13 23:00:00 10.7 0 Calma 5 Nordeste 0 -- -- 35
2021-02-13 22:00:00 10.9 2 Nordeste 8 Este 0 -- -- 39
2021-02-13 21:00:00 12.6 4 Nordeste 14 Este 0 -- -- 35
2021-02-13 20:00:00 13.6 6 Este 13 Este 0 -- -- 34
2021-02-13 19:00:00 16.6 5 Nordeste 11 Oeste 0 -- -- 33
2021-02-13 18:00:00 19.1 4 Noroeste 19 Norte 0 -- -- 35
2021-02-13 17:00:00 21.6 3 Nordeste 15 Noroeste 0 -- -- 25
2021-02-13 16:00:00 20.6 5 Este 23 Nordeste 0 -- -- 24
2021-02-13 15:00:00 22.3 9 Nordeste 27 Nordeste 0 -- -- 18
2021-02-13 14:00:00 20.3 9 Este 26 Este 0 -- -- 22
2021-02-13 13:00:00 21.5 14 Nordeste 31 Nordeste 0 -- -- 24
2021-02-13 08:00:00 -- -- -- -- -- -- -- -- --
2021-02-13 07:00:00 7.6 3 Nordeste 9 Nordeste 0 -- -- 58
2021-02-13 06:00:00 8 2 Nordeste 22 Sudeste 0 -- -- 75
2021-02-13 05:00:00 9.2 15 Este 31 Nordeste 0 -- -- 63
2021-02-13 04:00:00 7.8 4 Nordeste 13 Sudoeste 0 -- -- 79
2021-02-13 03:00:00 8.1 3 Nordeste 9 Nordeste 0 -- -- 78
2021-02-13 02:00:00 8.7 4 Este 10 Este 0 -- -- 78
2021-02-13 01:00:00 9.4 4 Este 14 Este 0 -- -- 78
2021-02-13 00:00:00 10.1 6 Este 17 Este 0 -- -- 75
2021-02-12 23:00:00 10.5 3 Este 28 Este 0 -- -- 74
2021-02-12 22:00:00 10.8 9 Sudeste 25 Nordeste 0 -- -- 72
2021-02-12 21:00:00 11.3 6 Sudeste 24 Sudeste 0 -- -- 66
2021-02-12 20:00:00 11.7 10 Sur 19 Nordeste 0 -- -- 64
2021-02-12 19:00:00 13.1 9 Norte 28 Noroeste 0 -- -- 67
2021-02-12 18:00:00 14.8 11 Norte 44 Norte 0 -- -- 57
2021-02-12 17:00:00 16.1 12 Norte 36 Este 0 -- -- 56
2021-02-12 16:00:00 17.4 14 Nordeste 34 Nordeste 0 -- -- 49
2021-02-12 15:00:00 18.5 9 Nordeste 27 Norte 0 -- -- 43
2021-02-12 14:00:00 18 7 Este 31 Este 0 -- -- 56
2021-02-12 13:00:00 17.1 7 Nordeste 25 Oeste 0 -- -- 58
2021-02-12 12:00:00 15.4 16 Oeste 33 Oeste 0 -- -- 68
2021-02-12 11:00:00 13.5 7 Oeste 13 Noroeste 0 -- -- 86
2021-02-12 10:00:00 12.2 6 Oeste 10 Oeste 0 -- -- 90
2021-02-12 09:00:00 10.9 3 Nordeste 8 Nordeste 0 -- -- 91
2021-02-12 08:00:00 10.7 6 Sudeste 12 Sudeste 0 -- -- 91
2021-02-12 07:00:00 10.7 6 Sur 12 Sudoeste 0 -- -- 90
2021-02-12 06:00:00 11.1 0 Calma 9 Oeste 0 -- -- 86
2021-02-12 05:00:00 11.3 3 Noroeste 17 Norte 0 -- -- 85
2021-02-12 04:00:00 11.4 8 Norte 24 Norte 0 -- -- 84
2021-02-12 03:00:00 10.9 10 Nordeste 23 Nordeste 0 -- -- 88
2021-02-12 02:00:00 10.4 3 Sudeste 6 Sudeste 0 -- -- 90
2021-02-12 01:00:00 10.8 2 Este 4 Sudeste 0 -- -- 89
2021-02-12 00:00:00 11.2 0 Calma 8 Nordeste 0 -- -- 88
2021-02-11 23:00:00 11.8 3 Nordeste 6 Nordeste 0 -- -- 88
2021-02-11 22:00:00 12.5 2 Este 6 Este 0 -- -- 88
2021-02-11 21:00:00 13.3 0 Calma 6 Sudeste 0 -- -- 86
2021-02-11 20:00:00 14.3 0 Calma 9 Sudeste 0 -- -- 83
2021-02-11 19:00:00 15.5 4 Sudeste 12 Sudoeste 0 -- -- 81
2021-02-11 18:00:00 17.3 7 Sudoeste 16 Sudoeste 0 -- -- 75
2021-02-11 17:00:00 19.6 8 Oeste 17 Oeste 0 -- -- 69
2021-02-11 16:00:00 20.3 8 Oeste 18 Oeste 0 -- -- 67
2021-02-11 15:00:00 20.1 8 Oeste 16 Oeste 0 -- -- 69
2021-02-11 14:00:00 19.3 6 Oeste 12 Noroeste 0 -- -- 74
2021-02-11 13:00:00 18.1 6 Oeste 11 Sudoeste 0 -- -- 80
2021-02-11 12:00:00 15.9 4 Oeste 14 Oeste 0 -- -- 86
2021-02-11 11:00:00 14 0 Calma 9 Oeste 0 -- -- 94
2021-02-11 10:00:00 11.6 0 Calma 11 Nordeste 0 -- -- 98
2021-02-11 09:00:00 9.6 0 Calma 7 Este 0 -- -- 96
2021-02-11 08:00:00 9.9 0 Calma 4 Noroeste 0 -- -- 96
2021-02-11 07:00:00 10.5 0 Calma 6 Sudeste 0 -- -- 96
2021-02-11 06:00:00 10.9 0 Calma 3 Norte 0 -- -- 96
2021-02-11 05:00:00 11.1 0 Calma 2 Oeste 0 -- -- 97
2021-02-11 04:00:00 11.1 0 Calma 4 Sudoeste 0 -- -- 96
2021-02-11 03:00:00 11.1 0 Calma 4 Oeste 0 -- -- 96
2021-02-11 02:00:00 11.1 0 Calma 5 Noroeste 0 -- -- 96
2021-02-11 01:00:00 11 3 Sur 11 Noroeste 0 -- -- 95
2021-02-11 00:00:00 11.2 6 Noroeste 10 Norte 0 -- -- 94
2021-02-10 23:00:00 11.4 2 Este 12 Este 0 -- -- 94
2021-02-10 22:00:00 11.7 8 Sur 34 Norte 0 -- -- 91
2021-02-10 21:00:00 11.8 10 Noroeste 19 Oeste 0 -- -- 91
2021-02-10 20:00:00 11.8 4 Sur 34 Oeste 0 -- -- 94
2021-02-10 19:00:00 12.1 23 Noroeste 40 Noroeste 0 -- -- 91
2021-02-10 18:00:00 12.6 10 Oeste 27 Oeste 0.2 -- -- 94
2021-02-10 17:00:00 12.7 12 Oeste 27 Oeste 0.6 -- -- 95
2021-02-10 16:00:00 12.7 15 Oeste 40 Oeste 0.6 -- -- 94
2021-02-10 15:00:00 12.8 23 Oeste 42 Oeste 0.8 -- -- 94
2021-02-10 14:00:00 12.8 15 Oeste 38 Oeste 1 -- -- 95
2021-02-10 13:00:00 12.5 21 Oeste 44 Oeste 0.6 -- -- 95
2021-02-10 12:00:00 11.9 19 Oeste 38 Oeste 1 -- -- 96
2021-02-10 11:00:00 11.2 17 Oeste 41 Oeste 1.4 -- -- 95
2021-02-10 10:00:00 10.8 28 Oeste 53 Oeste 1.2 -- -- 93
2021-02-10 09:00:00 11.1 19 Oeste 57 Noroeste 0.2 -- -- 93
2021-02-10 08:00:00 11.1 20 Oeste 46 Oeste 0.4 -- -- 93
2021-02-10 07:00:00 10.8 18 Oeste 40 Oeste 0.6 -- -- 93
2021-02-10 06:00:00 10.4 16 Oeste 43 Oeste 0.4 -- -- 93
2021-02-10 05:00:00 9.8 0 Calma 23 Noroeste 1 -- -- 94
2021-02-10 04:00:00 9.8 5 Noroeste 32 Oeste 0 -- -- 90
2021-02-10 03:00:00 9.8 8 Oeste 42 Noroeste 0.2 -- -- 90
2021-02-10 02:00:00 10.3 9 Oeste 32 Sudoeste 2 -- -- 94
2021-02-10 01:00:00 10.3 8 Oeste 47 Noroeste 0.6 -- -- 92
2021-02-10 00:00:00 10.6 18 Oeste 43 Noroeste 0.8 -- -- 90
2021-02-09 23:00:00 10.6 14 Oeste 35 Noroeste 3.6 -- -- 94
2021-02-09 22:00:00 10.5 10 Oeste 39 Oeste 1 -- -- 93
2021-02-09 21:00:00 10.5 12 Noroeste 50 Oeste 0.2 -- -- 88
2021-02-09 20:00:00 10.5 9 Oeste 57 Oeste 0.8 -- -- 94
2021-02-09 19:00:00 10.7 12 Oeste 48 Sudoeste 2.6 -- -- 94
2021-02-09 18:00:00 10.6 27 Oeste 55 Oeste 0.4 -- -- 88
2021-02-09 17:00:00 11.3 22 Oeste 49 Oeste 1.8 -- -- 92
2021-02-09 16:00:00 11.6 19 Oeste 51 Noroeste 0 -- -- 86
2021-02-09 15:00:00 11.5 21 Oeste 56 Oeste 0.6 -- -- 86
2021-02-09 14:00:00 11.4 21 Oeste 49 Oeste 0.8 -- -- 91
2021-02-09 13:00:00 11.3 19 Oeste 57 Oeste 0 -- -- 89
2021-02-09 12:00:00 10.5 17 Oeste 40 Oeste 1.2 -- -- 93
2021-02-09 11:00:00 9.9 17 Oeste 45 Sudoeste 0 -- -- 89
2021-02-09 10:00:00 9.4 14 Sudoeste 45 Sudoeste 0.2 -- -- 87
2021-02-09 09:00:00 9.1 11 Oeste 32 Oeste 0.4 -- -- 90
2021-02-09 08:00:00 8.9 12 Oeste 31 Sudoeste 0.4 -- -- 92
2021-02-09 07:00:00 9.1 9 Oeste 30 Oeste 0 -- -- 90
2021-02-09 06:00:00 9.2 16 Oeste 41 Oeste 0 -- -- 82
2021-02-09 05:00:00 8.7 8 Oeste 21 Oeste 0 -- -- 82
2021-02-09 04:00:00 8.9 8 Oeste 18 Oeste 0 -- -- 82
2021-02-09 03:00:00 9.2 9 Oeste 19 Noroeste 0 -- -- 83
2021-02-09 02:00:00 9.4 6 Oeste 21 Oeste 0 -- -- 82
2021-02-09 01:00:00 9.5 10 Oeste 23 Oeste 0 -- -- 81
2021-02-09 00:00:00 9.4 6 Sudoeste 13 Sudoeste 0 -- -- 82
2021-02-08 23:00:00 9.4 8 Sudoeste 31 Noroeste 0 -- -- 82
2021-02-08 22:00:00 9.6 15 Noroeste 39 Oeste 0 -- -- 81
2021-02-08 21:00:00 9.8 21 Oeste 40 Oeste 0 -- -- 84
2021-02-08 20:00:00 10 21 Oeste 37 Oeste 0 -- -- 80
2021-02-08 19:00:00 10.2 18 Oeste 34 Oeste 0 -- -- 75
2021-02-08 18:00:00 11.1 17 Oeste 36 Oeste 0 -- -- 68
2021-02-08 17:00:00 12.8 14 Oeste 32 Norte 0 -- -- 59
2021-02-08 16:00:00 14.6 11 Oeste 37 Oeste 0 -- -- 57
2021-02-08 15:00:00 14.5 14 Oeste 28 Oeste 0 -- -- 53
2021-02-08 14:00:00 14.6 10 Noroeste -- -- -- -- -- 59
2021-02-08 13:00:00 12.1 19 Oeste 44 Oeste 0 -- -- 59
2021-02-08 12:00:00 12 11 Oeste 33 Oeste 0 -- -- 70
2021-02-08 11:00:00 10.6 7 Norte 25 Norte 0 -- -- 77
2021-02-08 10:00:00 8.5 6 Noroeste 35 Norte 0.2 -- -- 84
2021-02-08 09:00:00 9.2 6 Noroeste 33 Oeste 0.4 -- -- 91
2021-02-08 08:00:00 10.3 17 Oeste 51 Oeste 10 -- -- 95
2021-02-08 07:00:00 10 18 Oeste 53 Oeste 4.6 -- -- 95
2021-02-08 06:00:00 9.7 23 Oeste 61 Sudoeste 2 -- -- 95
2021-02-08 05:00:00 9.3 17 Oeste 46 Sudoeste 1.6 -- -- 95
2021-02-08 04:00:00 -- -- -- -- -- 1 -- -- --
2021-02-08 03:00:00 8.8 14 Oeste 30 Oeste 2 -- -- 96
2021-02-08 02:00:00 8.4 8 Oeste 19 Sudoeste 1.6 -- -- 95
2021-02-08 01:00:00 8 9 Oeste 24 Oeste 0.8 -- -- 95
2021-02-08 00:00:00 7.8 9 Oeste 39 Oeste 0.6 -- -- 94
2021-02-07 23:00:00 7.9 14 Oeste 33 Oeste 0 -- -- 91
2021-02-07 22:00:00 8.1 14 Oeste 37 Noroeste 0 -- -- 87
2021-02-07 21:00:00 7.8 18 Noroeste 36 Noroeste 0 -- -- 82
2021-02-07 20:00:00 7.9 17 Noroeste 42 Noroeste 0 -- -- 78
2021-02-07 19:00:00 7.8 11 Norte 35 Oeste 0 -- -- 74
2021-02-07 18:00:00 8.6 6 Sur 14 Noroeste 0 -- -- 71
2021-02-07 17:00:00 8.2 9 Noroeste 29 Noroeste 0 -- -- 70
2021-02-07 16:00:00 8.6 13 Oeste 32 Oeste 0 -- -- 70
2021-02-07 15:00:00 8.8 10 Noroeste 38 Oeste 0 -- -- 76
2021-02-07 14:00:00 9.6 12 Oeste 23 Oeste 0 -- -- 73
2021-02-07 13:00:00 10.8 11 Noroeste 22 Noroeste 0 -- -- 73
2021-02-07 12:00:00 8.5 9 Oeste 24 Oeste 0 -- -- 87
2021-02-07 11:00:00 8.3 4 Oeste 11 Oeste 0.2 -- -- 92
2021-02-07 10:00:00 7.2 2 Noroeste 14 Norte 0 -- -- 93
2021-02-07 09:00:00 7 2 Norte 5 Noroeste 0 -- -- 94
2021-02-07 08:00:00 6.8 0 Calma 5 Sudeste 0 -- -- 94
2021-02-07 07:00:00 6.7 0 Calma 3 Sudoeste 0 -- -- 94
2021-02-07 06:00:00 6.7 0 Calma 9 Sur 0.2 -- -- 94
2021-02-07 05:00:00 6.7 0 Calma 5 Sudeste 0 -- -- 95
2021-02-07 04:00:00 -- -- -- -- -- 0.4 -- -- --
2021-02-07 03:00:00 6.8 0 Calma 8 Oeste 0.2 -- -- 93
2021-02-07 02:00:00 6.9 4 Oeste 13 Oeste 0.2 -- -- 92
2021-02-07 01:00:00 7.2 3 Sudoeste 16 Oeste 0 -- -- 90
2021-02-07 00:00:00 7.4 9 Oeste 17 Noroeste 0 -- -- 88
2021-02-06 23:00:00 7.6 7 Oeste 15 Oeste 0.2 -- -- 90
2021-02-06 22:00:00 7.7 0 Calma 12 Oeste 0 -- -- 90
2021-02-06 21:00:00 8 5 Oeste 27 Sudoeste 0.2 -- -- 90
2021-02-06 20:00:00 8.1 5 Oeste 15 Oeste 0.4 -- -- 90
2021-02-06 19:00:00 8.4 5 Oeste 17 Oeste 1 -- -- 88
2021-02-06 18:00:00 8.7 5 Noroeste 22 Noroeste 0 -- -- 87
2021-02-06 17:00:00 9.3 12 Oeste 24 Oeste 0.2 -- -- 87
2021-02-06 16:00:00 9.1 9 Oeste 26 Oeste 1 -- -- 90
2021-02-06 15:00:00 9.1 9 Sudoeste 21 Sudoeste 1.6 -- -- 90
2021-02-06 14:00:00 9.7 11 Oeste 23 Oeste 0.8 -- -- 86
2021-02-06 13:00:00 10.1 8 Oeste 26 Sudoeste 0.2 -- -- 85
2021-02-06 12:00:00 11.2 9 Oeste 24 Oeste 0 -- -- 83
2021-02-06 11:00:00 9.1 6 Sudoeste 20 Noroeste 0 -- -- 90
2021-02-06 10:00:00 8.2 6 Oeste 14 Sur 0 -- -- 92
2021-02-06 09:00:00 7.7 3 Sudoeste 11 Oeste 0 -- -- 92
2021-02-06 08:00:00 7.5 0 Calma 6 Norte 0 -- -- 91
2021-02-06 07:00:00 7.6 0 Calma 7 Noroeste 0 -- -- 91
2021-02-06 06:00:00 7.8 5 Oeste 21 Oeste 0 -- -- 91
2021-02-06 05:00:00 7.9 10 Oeste 23 Oeste 0.4 -- -- 93
2021-02-06 04:00:00 -- -- -- -- -- 1.2 -- -- --
2021-02-06 03:00:00 8.4 10 Sudoeste 23 Sudoeste 2 -- -- 95
2021-02-06 02:00:00 8.3 7 Sudoeste 27 Sur 1 -- -- 95
2021-02-06 01:00:00 8.4 13 Sudoeste 36 Sudoeste 2.4 -- -- 94
2021-02-06 00:00:00 8.5 9 Sur 22 Oeste 2.2 -- -- 92
2021-02-05 23:00:00 8.9 12 Sudoeste 31 Sudoeste 1.2 -- -- 89
2021-02-05 22:00:00 9.3 5 Sudoeste 15 Sur 0.6 -- -- 86
2021-02-05 21:00:00 9.4 4 Sudoeste 23 Sudoeste 0 -- -- 84
2021-02-05 20:00:00 9.6 8 Sudoeste 21 Oeste 0 -- -- 82
2021-02-05 19:00:00 10.3 9 Sudoeste 22 Sudoeste 0 -- -- 78
2021-02-05 18:00:00 11.2 9 Sudoeste 27 Oeste 0 -- -- 73
2021-02-05 17:00:00 11.3 3 Sur 38 Oeste 0 -- -- 72
2021-02-05 16:00:00 12.1 14 Oeste 38 Oeste 0 -- -- 67
2021-02-05 15:00:00 13.2 10 Oeste 26 Sur 0 -- -- 68
2021-02-05 14:00:00 16.3 11 Sudoeste 21 Sudoeste 0 -- -- 67
2021-02-05 13:00:00 17.2 3 Sudoeste 15 Sudoeste 0 -- -- 60
2021-02-05 12:00:00 12.3 4 Noroeste 10 Noroeste 0 -- -- 81
2021-02-05 11:00:00 11.7 0 Calma 5 Sudoeste 0 -- -- 81
2021-02-05 10:00:00 11.1 0 Calma 6 Sur 0 -- -- 82
2021-02-05 09:00:00 10.4 3 Este 12 Sudeste 0 -- -- 82
2021-02-05 08:00:00 10.4 5 Nordeste 17 Este 0 -- -- 80
2021-02-05 07:00:00 10.4 6 Este 21 Nordeste 0 -- -- 80
2021-02-05 06:00:00 11 11 Nordeste 20 Nordeste 0 -- -- 76
2021-02-05 05:00:00 11.4 4 Nordeste 28 Nordeste 0 -- -- 71
2021-02-05 04:00:00 -- -- -- -- -- 0 -- -- --
2021-02-05 03:00:00 12 8 Este 20 Sudeste 0 -- -- 63
2021-02-05 02:00:00 13.1 4 Este 19 Este 0 -- -- 55
2021-02-05 01:00:00 13.1 7 Este 18 Nordeste 0 -- -- 53
2021-02-05 00:00:00 13.2 8 Este 19 Sudeste 0 -- -- 55
2021-02-04 23:00:00 12.3 4 Sur 12 Este 0 -- -- 78
2021-02-04 22:00:00 12.7 0 Calma 14 Norte 0 -- -- 79
2021-02-04 21:00:00 12.8 0 Calma 9 Noroeste 0 -- -- 84
2021-02-04 20:00:00 13.8 4 Nordeste 5 Este 0 -- -- 81
2021-02-04 19:00:00 14.7 0 Calma 4 Oeste 0 -- -- 78
2021-02-04 18:00:00 16 2 Oeste 7 Sudoeste 0 -- -- 74
2021-02-04 17:00:00 16.4 3 Oeste 9 Noroeste 0 -- -- 69
2021-02-04 16:00:00 17.6 2 Noroeste 9 Sudoeste 0 -- -- 67
2021-02-04 15:00:00 18 3 Sur 13 Sur 0 -- -- 63
2021-02-04 14:00:00 17.4 5 Sudoeste 10 Sudoeste 0 -- -- 67
2021-02-04 13:00:00 16.3 6 Sudoeste 12 Sudoeste 0 -- -- 65
2021-02-04 12:00:00 15.4 0 Calma 8 Sur 0 -- -- 69
2021-02-04 11:00:00 12.6 4 Noroeste 8 Oeste 0 -- -- 75
2021-02-04 10:00:00 10.6 0 Calma 9 Nordeste 0 -- -- 83
2021-02-04 09:00:00 9.9 4 Este 12 Nordeste 0 -- -- 82
2021-02-04 08:00:00 9.7 2 Nordeste 10 Este 0 -- -- 82
2021-02-04 07:00:00 8.6 3 Sudeste 15 Este 0 -- -- 87
2021-02-04 06:00:00 7.8 4 Nordeste 8 Nordeste 0 -- -- 90
2021-02-04 05:00:00 8.1 0 Calma 4 Nordeste 0 -- -- 90
2021-02-04 04:00:00 -- -- -- -- -- 0 -- -- --
2021-02-04 03:00:00 7.9 0 Calma 2 Este 0 -- -- 86
2021-02-04 02:00:00 8.6 2 Este 5 Nordeste 0 -- -- 87
2021-02-04 01:00:00 8.8 0 Calma 4 Nordeste 0 -- -- 85
2021-02-04 00:00:00 9.4 0 Calma 4 Noroeste 0 -- -- 83
2021-02-03 23:00:00 10 2 Sudeste 4 Sudeste 0 -- -- 80
2021-02-03 22:00:00 10.7 0 Calma 5 Nordeste 0 -- -- 77
2021-02-03 21:00:00 11.5 0 Calma 4 Sudeste 0 -- -- 75
2021-02-03 20:00:00 12.6 0 Calma 4 Norte 0 -- -- 69
2021-02-03 19:00:00 14.2 0 Calma 6 Noroeste 0 -- -- 62
2021-02-03 18:00:00 16.1 2 Oeste 5 Sudeste 0 -- -- 56
2021-02-03 17:00:00 17.1 2 Sudeste 14 Noroeste 0 -- -- 53
2021-02-03 16:00:00 18.1 8 Oeste 19 Oeste 0 -- -- 48
2021-02-03 15:00:00 20.1 9 Oeste 20 Oeste 0 -- -- 44
2021-02-03 14:00:00 18.9 8 Noroeste 19 Oeste 0 -- -- 45
2021-02-03 13:00:00 17.8 9 Oeste 13 Oeste 0 -- -- 47
2021-02-03 12:00:00 16.7 3 Oeste 9 Noroeste 0 -- -- 49
2021-02-03 11:00:00 13.7 0 Calma 11 Noroeste 0 -- -- 59
2021-02-03 10:00:00 10.6 3 Norte 8 Sudoeste 0 -- -- 63
2021-02-03 09:00:00 8.8 2 Este 6 Nordeste 0 -- -- 61
2021-02-03 08:00:00 8.8 2 Sudeste 9 Nordeste 0 -- -- 60
2021-02-03 07:00:00 8.8 3 Nordeste 8 Nordeste 0 -- -- 61
2021-02-03 06:00:00 9.1 0 Calma 4 Norte 0 -- -- 58
2021-02-03 05:00:00 9.6 2 Nordeste 4 Nordeste 0 -- -- 54
2021-02-03 04:00:00 -- -- -- -- -- 0 -- -- --
2021-02-03 03:00:00 9.9 4 Nordeste 8 Nordeste 0 -- -- 58
2021-02-03 02:00:00 9.8 3 Este 5 Este 0 -- -- 65
2021-02-03 01:00:00 10.4 3 Este 6 Nordeste 0 -- -- 60
2021-02-03 00:00:00 10.7 0 Calma 6 Nordeste 0 -- -- 62
2021-02-02 23:00:00 11.2 0 Calma 5 Este 0 -- -- 68
2021-02-02 22:00:00 12.1 0 Calma 9 Nordeste 0 -- -- 68
2021-02-02 21:00:00 12.7 3 Este 5 Este 0 -- -- 76
2021-02-02 20:00:00 13.7 0 Calma 5 Sudeste 0 -- -- 73
2021-02-02 19:00:00 16.1 0 Calma 6 Sur 0 -- -- 66
2021-02-02 18:00:00 19.2 4 Sudoeste 16 Oeste 0 -- -- 56
2021-02-02 17:00:00 22.2 7 Oeste 14 Sudoeste 0 -- -- 44
2021-02-02 16:00:00 24.5 7 Oeste 17 Sudoeste 0 -- -- 36
2021-02-02 15:00:00 24.6 9 Oeste 16 Oeste 0 -- -- 33
2021-02-02 14:00:00 23.6 10 Oeste 19 Oeste 0 -- -- 35
2021-02-02 13:00:00 22.1 5 Sudoeste 10 Sur 0 -- -- 44
2021-02-02 12:00:00 20 5 Oeste 9 Oeste 0 -- -- 49
2021-02-02 11:00:00 16.1 2 Sudeste 7 Sur 0 -- -- 63
2021-02-02 10:00:00 11.6 3 Sudoeste 8 Nordeste 0 -- -- 72
2021-02-02 09:00:00 9.8 2 Este 8 Sur 0 -- -- 72
2021-02-02 08:00:00 10.4 2 Este 21 Noroeste 0 -- -- 69
2021-02-02 07:00:00 10.7 5 Oeste 18 Norte 0 -- -- 69
2021-02-02 06:00:00 9.5 4 Norte 9 Noroeste 0 -- -- 78
2021-02-02 05:00:00 8.8 2 Sudeste 9 Noroeste 0 -- -- 81
2021-02-02 04:00:00 -- -- -- -- -- 0 -- -- --
2021-02-02 03:00:00 9 2 Sudeste 6 Sudoeste 0 -- -- 80
2021-02-02 02:00:00 9.6 3 Este 7 Nordeste 0 -- -- 79
2021-02-02 01:00:00 10.1 3 Sudeste 12 Nordeste 0 -- -- 76
2021-02-02 00:00:00 9.7 3 Oeste 7 Nordeste 0 -- -- 75
2021-02-01 23:00:00 10.2 3 Sudeste 10 Sur 0 -- -- 72
2021-02-01 22:00:00 10.5 8 Sur 13 Sudoeste 0 -- -- 69
2021-02-01 21:00:00 10.8 2 Nordeste 4 Este 0 -- -- 77
2021-02-01 20:00:00 12 0 Calma 6 Noroeste 0 -- -- 72
2021-02-01 19:00:00 13.9 3 Sur 19 Nordeste 0 -- -- 67
2021-02-01 18:00:00 15.9 6 Norte 24 Oeste 0 -- -- 59
2021-02-01 17:00:00 17.6 10 Oeste 25 Norte 0 -- -- 53
2021-02-01 16:00:00 19.1 8 Oeste 25 Oeste 0 -- -- 54
2021-02-01 15:00:00 18.4 12 Oeste 26 Noroeste 0 -- -- 58
2021-02-01 14:00:00 16.7 12 Oeste 32 Oeste 0 -- -- 64
2021-02-01 13:00:00 15.9 10 Oeste 31 Oeste 0 -- -- 68
2021-02-01 12:00:00 14.9 6 Oeste 22 Noroeste 0 -- -- 74
2021-02-01 11:00:00 14.3 10 Norte 24 Norte 0 -- -- 73
2021-02-01 10:00:00 12.2 6 Norte 18 Norte 0 -- -- 80
2021-02-01 09:00:00 10.9 4 Norte 13 Norte 0 -- -- 82
2021-02-01 08:00:00 11.3 3 Noroeste 20 Noroeste 0 -- -- 81
2021-02-01 07:00:00 12.1 5 Noroeste 20 Noroeste 0 -- -- 80
2021-02-01 06:00:00 12.4 5 Noroeste 24 Noroeste 0 -- -- 79
2021-02-01 05:00:00 12.8 12 Noroeste 32 Noroeste 0 -- -- 79
2021-02-01 04:00:00 -- -- -- -- -- 0.2 -- -- --
2021-02-01 03:00:00 11.8 3 Sudeste 8 Este 0.2 -- -- 93
2021-02-01 02:00:00 11.7 0 Calma 18 Sudoeste 0.2 -- -- 92
2021-02-01 01:00:00 11.8 10 Oeste 23 Oeste 0 -- -- 90
2021-02-01 00:00:00 11.6 5 Oeste 14 Sudeste 0 -- -- 91